Time;durP1;ratioP1;P1;durP2;ratioP2;P2;SDS_P1;SDS_P2;PMS_P1;PMS_P2;Temp;Humidity;BMP_temperature;BMP_pressure;BME280_temperature;BME280_humidity;BME280_pressure;Samples;Min_cycle;Max_cycle;Signal;HPM_P1;HPM_P2
2021/05/15 00:00:20;;;;;;;0.1;0.1;;;;;;;11.1;81.7998;932.99;;;;
2021/05/15 00:02:45;;;;;;;0.2;0.2;;;;;;;11;82.06738;933.0058;;;;
2021/05/15 00:05:11;;;;;;;0.2;0.2;;;;;;;11.06;82.36328;932.9661;;;;
2021/05/15 00:07:36;;;;;;;0.2;0.2;;;;;;;11;82.20215;932.8894;;;;
2021/05/15 00:10:01;;;;;;;0.6;0.5;;;;;;;10.98;83.02344;932.9246;;;;
2021/05/15 00:12:26;;;;;;;0.4;0.2;;;;;;;10.75;84.39355;932.9625;;;;
2021/05/15 00:15:12;;;;;;;0.2;0.2;;;;;;;10.79;84.59668;932.9419;;;;
2021/05/15 00:17:37;;;;;;;0.1;0.1;;;;;;;10.82;84.47656;932.9095;;;;
2021/05/15 00:20:02;;;;;;;2;0.3;;;;;;;10.95;84.25098;932.9301;;;;
2021/05/15 00:22:27;;;;;;;0.1;0.1;;;;;;;10.97;84.37109;932.9102;;;;
2021/05/15 00:24:52;;;;;;;0.2;0.2;;;;;;;10.98;83.80078;932.9563;;;;
2021/05/15 00:27:17;;;;;;;0.1;0.1;;;;;;;10.86;84.45215;932.9199;;;;
2021/05/15 00:29:42;;;;;;;0.1;0.1;;;;;;;;;;;;;
2021/05/15 00:32:07;;;;;;;0.8;0.3;;;;;;;;;;;;;
2021/05/15 00:34:34;;;;;;;0.1;0.1;;;;;;;;;;;;;
2021/05/15 00:37:11;;;;;;;0.2;0.2;;;;;;;;;;;;;
2021/05/15 00:39:36;;;;;;;0.2;0.2;;;;;;;;;;;;;
2021/05/15 00:42:01;;;;;;;0.5;0.3;;;;;;;;;;;;;
2021/05/15 00:44:42;;;;;;;0.2;0.2;;;;;;;;;;;;;
2021/05/15 00:46:53;;;;;;;0.1;0.1;;;;;;;;;;;;;
2021/05/15 00:49:18;;;;;;;0.2;0.2;;;;;;;;;;;;;
2021/05/15 00:51:43;;;;;;;0.1;0.1;;;;;;;;;;;;;
2021/05/15 00:54:08;;;;;;;0.3;0.1;;;;;;;;;;;;;
2021/05/15 00:56:33;;;;;;;0.2;0.2;;;;;;;;;;;;;
2021/05/15 00:59:00;;;;;;;0.4;0.3;;;;;;;;;;;;;
2021/05/15 01:01:25;;;;;;;2;0.2;;;;;;;;;;;;;
2021/05/15 01:03:50;;;;;;;0.1;0.1;;;;;;;;;;;;;
2021/05/15 01:06:15;;;;;;;0.3;0.2;;;;;;;;;;;;;
2021/05/15 01:08:44;;;;;;;0.2;0.2;;;;;;;;;;;;;
2021/05/15 01:11:05;;;;;;;0.3;0.2;;;;;;;;;;;;;
2021/05/15 01:13:33;;;;;;;0.3;0.3;;;;;;;;;;;;;
2021/05/15 01:16:11;;;;;;;1;0.4;;;;;;;;;;;;;
2021/05/15 01:18:36;;;;;;;0.5;0.3;;;;;;;;;;;;;
2021/05/15 01:21:01;;;;;;;0.3;0.3;;;;;;;;;;;;;
2021/05/15 01:23:26;;;;;;;0.5;0.2;;;;;;;;;;;;;
2021/05/15 01:25:51;;;;;;;0.2;0.2;;;;;;;;;;;;;
2021/05/15 01:28:16;;;;;;;0.1;0.1;;;;;;;;;;;;;
2021/05/15 01:30:43;;;;;;;1.1;0.3;;;;;;;;;;;;;
2021/05/15 01:33:08;;;;;;;0.2;0.2;;;;;;;;;;;;;
2021/05/15 01:35:43;;;;;;;0.4;0.4;;;;;;;;;;;;;
2021/05/15 01:38:08;;;;;;;0.4;0.4;;;;;;;;;;;;;
2021/05/15 01:40:33;;;;;;;0.2;0.2;;;;;;;;;;;;;
2021/05/15 01:42:58;;;;;;;0.2;0.2;;;;;;;;;;;;;
2021/05/15 01:45:26;;;;;;;1.1;0.4;;;;;;;;;;;;;
2021/05/15 01:47:49;;;;;;;0.1;0.1;;;;;;;;;;;;;
2021/05/15 01:50:14;;;;;;;0.4;0.3;;;;;;;;;;;;;
2021/05/15 01:52:39;;;;;;;0.6;0.3;;;;;;;;;;;;;
2021/05/15 01:55:04;;;;;;;0.3;0.3;;;;;;;;;;;;;
2021/05/15 01:57:29;;;;;;;0.4;0.4;;;;;;;;;;;;;
2021/05/15 01:59:54;;;;;;;0.3;0.3;;;;;;;;;;;;;
2021/05/15 02:02:20;;;;;;;0.2;0.2;;;;;;;;;;;;;
2021/05/15 02:04:45;;;;;;;0.3;0.2;;;;;;;;;;;;;
2021/05/15 02:07:10;;;;;;;0.2;0.2;;;;;;;;;;;;;
2021/05/15 02:09:35;;;;;;;0.1;0.1;;;;;;;;;;;;;
2021/05/15 02:12:00;;;;;;;0.2;0.2;;;;;;;;;;;;;
2021/05/15 02:14:25;;;;;;;0.2;0.2;;;;;;;;;;;;;
2021/05/15 02:16:51;;;;;;;0.4;0.4;;;;;;;;;;;;;
2021/05/15 02:19:16;;;;;;;0.2;0.2;;;;;;;;;;;;;
2021/05/15 02:21:41;;;;;;;0.3;0.2;;;;;;;;;;;;;
2021/05/15 02:24:06;;;;;;;0.1;0.1;;;;;;;;;;;;;
2021/05/15 02:26:31;;;;;;;0.4;0.3;;;;;;;;;;;;;
2021/05/15 02:28:56;;;;;;;0.2;0.2;;;;;;;;;;;;;
2021/05/15 02:31:21;;;;;;;0.1;0.1;;;;;;;;;;;;;
2021/05/15 02:33:47;;;;;;;0.4;0.2;;;;;;;;;;;;;
2021/05/15 02:36:12;;;;;;;0.1;0.1;;;;;;;;;;;;;
2021/05/15 02:38:37;;;;;;;0.3;0.3;;;;;;;;;;;;;
2021/05/15 02:41:04;;;;;;;0.7;0.4;;;;;;;;;;;;;
2021/05/15 02:43:29;;;;;;;0.3;0.3;;;;;;;;;;;;;
2021/05/15 02:45:56;;;;;;;0.2;0.2;;;;;;;;;;;;;
2021/05/15 02:48:21;;;;;;;0.3;0.3;;;;;;;;;;;;;
2021/05/15 02:50:46;;;;;;;0.6;0.4;;;;;;;;;;;;;
2021/05/15 02:53:11;;;;;;;0.2;0.2;;;;;;;;;;;;;
2021/05/15 02:55:36;;;;;;;0.6;0.5;;;;;;;;;;;;;
2021/05/15 02:58:01;;;;;;;0.4;0.4;;;;;;;;;;;;;
2021/05/15 03:00:27;;;;;;;1.2;0.4;;;;;;;;;;;;;
2021/05/15 03:02:52;;;;;;;0.3;0.3;;;;;;;;;;;;;
2021/05/15 03:05:22;;;;;;;0.2;0.2;;;;;;;;;;;;;
2021/05/15 03:08:00;;;;;;;0.5;0.3;;;;;;;;;;;;;
2021/05/15 03:10:25;;;;;;;0.1;0.1;;;;;;;;;;;;;
2021/05/15 03:12:51;;;;;;;0.3;0.3;;;;;;;;;;;;;
2021/05/15 03:15:18;;;;;;;0.1;0.1;;;;;;;;;;;;;
2021/05/15 03:17:43;;;;;;;0.3;0.3;;;;;;;;;;;;;
2021/05/15 03:20:08;;;;;;;0.5;0.4;;;;;;;;;;;;;
2021/05/15 03:22:33;;;;;;;0.1;0.1;;;;;;;;;;;;;
2021/05/15 03:24:58;;;;;;;0.7;0.4;;;;;;;;;;;;;
2021/05/15 03:27:23;;;;;;;0.2;0.2;;;;;;;;;;;;;
2021/05/15 03:29:49;;;;;;;0.2;0.2;;;;;;;;;;;;;
2021/05/15 03:32:14;;;;;;;0.7;0.4;;;;;;;;;;;;;
2021/05/15 03:34:39;;;;;;;0.4;0.2;;;;;;;;;;;;;
2021/05/15 03:37:05;;;;;;;0.2;0.2;;;;;;;;;;;;;
2021/05/15 03:39:30;;;;;;;0.1;0.1;;;;;;;;;;;;;
2021/05/15 03:41:55;;;;;;;0.3;0.3;;;;;;;;;;;;;
2021/05/15 03:44:20;;;;;;;0.2;0.2;;;;;;;;;;;;;
2021/05/15 03:46:46;;;;;;;0.2;0.2;;;;;;;;;;;;;
2021/05/15 03:49:11;;;;;;;0.2;0.2;;;;;;;;;;;;;
2021/05/15 03:51:38;;;;;;;0.2;0.2;;;;;;;;;;;;;
2021/05/15 03:54:02;;;;;;;0.6;0.3;;;;;;;;;;;;;
2021/05/15 03:56:27;;;;;;;0.6;0.3;;;;;;;;;;;;;
2021/05/15 03:58:52;;;;;;;0.2;0.2;;;;;;;;;;;;;
2021/05/15 04:02:30;;;;;;;0.2;0.2;;;;;;;10.18;88.65137;932.8613;;;;
2021/05/15 04:04:56;;;;;;;0.2;0.2;;;;;;;10.18;88.16309;932.8947;;;;
2021/05/15 04:07:20;;;;;;;0.4;0.4;;;;;;;10.15;87.74707;932.8828;;;;
2021/05/15 04:09:45;;;;;;;0.2;0.2;;;;;;;10.02;87.60742;932.8506;;;;
2021/05/15 04:12:10;;;;;;;0.1;0;;;;;;;10;87.85254;932.8582;;;;
2021/05/15 04:15:06;;;;;;;0.2;0.2;;;;;;;9.9;87.68262;932.7903;;;;
2021/05/15 04:17:29;;;;;;;1.1;0.2;;;;;;;9.88;87.22266;932.8094;;;;
2021/05/15 04:19:53;;;;;;;1;0.3;;;;;;;9.8;87.28809;932.7356;;;;
2021/05/15 04:22:19;;;;;;;0.2;0.2;;;;;;;9.87;87.75879;932.7363;;;;
2021/05/15 04:24:44;;;;;;;0.1;0.1;;;;;;;9.84;87.92383;932.7798;;;;
2021/05/15 04:27:12;;;;;;;8.8;0.4;;;;;;;9.69;88.24414;932.8419;;;;
2021/05/15 04:29:37;;;;;;;0.1;0.1;;;;;;;9.52;88.86035;932.8552;;;;
2021/05/15 04:32:06;;;;;;;0.1;0.1;;;;;;;9.74;88.9502;932.8818;;;;
2021/05/15 04:34:31;;;;;;;0.3;0.3;;;;;;;9.9;88.53711;932.8508;;;;
2021/05/15 04:36:56;;;;;;;0.2;0.2;;;;;;;10.03;88.46289;932.8546;;;;
2021/05/15 04:39:21;;;;;;;0.3;0.3;;;;;;;10.05;86.95117;932.8157;;;;
2021/05/15 04:41:46;;;;;;;0.3;0.2;;;;;;;10.09;86.67285;932.858;;;;
2021/05/15 04:44:11;;;;;;;0.2;0.2;;;;;;;10.15;86.50391;932.8851;;;;
2021/05/15 04:46:36;;;;;;;0.3;0.3;;;;;;;10.04;84.4502;932.8539;;;;
2021/05/15 04:49:03;;;;;;;0;0;;;;;;;9.88;81.87793;932.807;;;;
2021/05/15 04:52:44;;;;;;;0.1;0.1;;;;;;;9.76;82.35645;932.788;;;;
2021/05/15 04:55:12;;;;;;;0.1;0.1;;;;;;;9.76;84.06445;932.7976;;;;
2021/05/15 04:57:37;;;;;;;0.8;0.5;;;;;;;9.77;83.79297;932.8095;;;;
2021/05/15 05:00:44;;;;;;;0.5;0.3;;;;;;;9.81;85.14648;932.793;;;;
2021/05/15 05:03:11;;;;;;;0.2;0.2;;;;;;;9.87;86.84473;932.7751;;;;
2021/05/15 05:05:36;;;;;;;0.6;0.4;;;;;;;10.03;86.69434;932.7035;;;;
2021/05/15 05:08:03;;;;;;;0.2;0.2;;;;;;;10.08;87.75293;932.7473;;;;
2021/05/15 05:10:29;;;;;;;0.3;0.2;;;;;;;10.11;86.33496;932.8342;;;;
2021/05/15 05:12:56;;;;;;;0.2;0.2;;;;;;;10.11;83.91699;932.788;;;;
2021/05/15 05:15:21;;;;;;;0.4;0.4;;;;;;;;;;;;;
2021/05/15 05:17:46;;;;;;;0.2;0.2;;;;;;;;;;;;;
2021/05/15 05:20:12;;;;;;;0.5;0.2;;;;;;;;;;;;;
2021/05/15 05:22:37;;;;;;;0.8;0.5;;;;;;;;;;;;;
2021/05/15 05:25:02;;;;;;;1.7;0.4;;;;;;;;;;;;;
2021/05/15 05:27:29;;;;;;;0.1;0.1;;;;;;;;;;;;;
2021/05/15 05:29:54;;;;;;;0.2;0.2;;;;;;;;;;;;;
2021/05/15 05:32:19;;;;;;;0.1;0.1;;;;;;;;;;;;;
2021/05/15 05:34:44;;;;;;;0.1;0.1;;;;;;;;;;;;;
2021/05/15 05:37:11;;;;;;;0;0;;;;;;;;;;;;;
2021/05/15 05:39:37;;;;;;;0.1;0.1;;;;;;;;;;;;;
2021/05/15 05:42:01;;;;;;;0.1;0.1;;;;;;;;;;;;;
2021/05/15 05:44:27;;;;;;;0;0;;;;;;;;;;;;;
2021/05/15 05:46:52;;;;;;;0.1;0.1;;;;;;;;;;;;;
2021/05/15 05:49:17;;;;;;;0.4;0.1;;;;;;;;;;;;;
2021/05/15 05:51:44;;;;;;;0.3;0.1;;;;;;;;;;;;;
2021/05/15 05:54:09;;;;;;;0;0;;;;;;;;;;;;;
2021/05/15 05:56:35;;;;;;;0.2;0.2;;;;;;;;;;;;;
2021/05/15 05:59:11;;;;;;;0.1;0.1;;;;;;;;;;;;;
2021/05/15 06:01:38;;;;;;;0;0;;;;;;;;;;;;;
2021/05/15 06:04:01;;;;;;;0;0;;;;;;;;;;;;;
2021/05/15 06:06:27;;;;;;;0;0;;;;;;;;;;;;;
2021/05/15 06:08:53;;;;;;;0;0;;;;;;;;;;;;;
2021/05/15 06:11:36;;;;;;;0.1;0.1;;;;;;;;;;;;;
2021/05/15 06:14:01;;;;;;;0.2;0;;;;;;;;;;;;;
2021/05/15 06:16:26;;;;;;;0;0;;;;;;;;;;;;;
2021/05/15 06:18:52;;;;;;;0;0;;;;;;;;;;;;;
2021/05/15 06:21:17;;;;;;;0;0;;;;;;;;;;;;;
2021/05/15 06:23:43;;;;;;;0.1;0.1;;;;;;;;;;;;;
2021/05/15 06:26:09;;;;;;;0.1;0.1;;;;;;;;;;;;;
2021/05/15 06:28:34;;;;;;;0.1;0;;;;;;;;;;;;;
2021/05/15 06:30:59;;;;;;;0;0;;;;;;;;;;;;;
2021/05/15 06:33:29;;;;;;;0.2;0;;;;;;;;;;;;;
2021/05/15 06:35:55;;;;;;;0.1;0.1;;;;;;;;;;;;;
2021/05/15 06:38:20;;;;;;;0;0;;;;;;;;;;;;;
2021/05/15 06:40:45;;;;;;;0;0;;;;;;;;;;;;;
2021/05/15 06:43:10;;;;;;;0;0;;;;;;;;;;;;;
2021/05/15 06:45:35;;;;;;;0.6;0.1;;;;;;;;;;;;;
2021/05/15 06:48:00;;;;;;;0;0;;;;;;;;;;;;;
2021/05/15 06:50:26;;;;;;;0;0;;;;;;;;;;;;;
2021/05/15 06:52:51;;;;;;;3.4;0.1;;;;;;;;;;;;;
2021/05/15 06:55:16;;;;;;;0.1;0.1;;;;;;;;;;;;;
2021/05/15 06:57:41;;;;;;;0.1;0.1;;;;;;;;;;;;;
2021/05/15 07:00:07;;;;;;;0.2;0.1;;;;;;;;;;;;;
2021/05/15 07:02:33;;;;;;;0;0;;;;;;;;;;;;;
2021/05/15 07:04:57;;;;;;;0.1;0;;;;;;;;;;;;;
2021/05/15 07:07:24;;;;;;;0;0;;;;;;;;;;;;;
2021/05/15 07:09:50;;;;;;;0;0;;;;;;;;;;;;;
2021/05/15 07:12:15;;;;;;;0;0;;;;;;;;;;;;;
2021/05/15 07:14:40;;;;;;;0;0;;;;;;;;;;;;;
2021/05/15 07:17:06;;;;;;;0;0;;;;;;;;;;;;;
2021/05/15 07:19:32;;;;;;;0;0;;;;;;;;;;;;;
2021/05/15 07:21:58;;;;;;;0.2;0.1;;;;;;;;;;;;;
2021/05/15 07:24:23;;;;;;;0;0;;;;;;;;;;;;;
2021/05/15 07:26:48;;;;;;;0;0;;;;;;;;;;;;;
2021/05/15 07:29:14;;;;;;;0.1;0;;;;;;;;;;;;;
2021/05/15 07:31:39;;;;;;;0.1;0;;;;;;;;;;;;;
2021/05/15 07:34:04;;;;;;;0;0;;;;;;;;;;;;;
2021/05/15 07:36:29;;;;;;;0;0;;;;;;;;;;;;;
2021/05/15 07:38:54;;;;;;;0;0;;;;;;;;;;;;;
2021/05/15 07:41:34;;;;;;;0.1;0.1;;;;;;;;;;;;;
2021/05/15 07:44:00;;;;;;;0;0;;;;;;;;;;;;;
2021/05/15 07:46:25;;;;;;;0.2;0.2;;;;;;;;;;;;;
2021/05/15 07:48:51;;;;;;;0.4;0;;;;;;;;;;;;;
2021/05/15 07:51:19;;;;;;;0.1;0.1;;;;;;;;;;;;;
2021/05/15 07:53:41;;;;;;;0.2;0.2;;;;;;;;;;;;;
2021/05/15 07:56:06;;;;;;;0;0;;;;;;;;;;;;;
2021/05/15 07:58:31;;;;;;;0.1;0.1;;;;;;;;;;;;;
2021/05/15 08:00:57;;;;;;;0;0;;;;;;;;;;;;;
2021/05/15 08:03:37;;;;;;;1.3;0.2;;;;;;;;;;;;;
2021/05/15 08:06:02;;;;;;;0;0;;;;;;;;;;;;;
2021/05/15 08:08:27;;;;;;;0.2;0.2;;;;;;;;;;;;;
2021/05/15 08:11:12;;;;;;;0.1;0.1;;;;;;;;;;;;;
2021/05/15 08:13:37;;;;;;;0.2;0.2;;;;;;;;;;;;;
2021/05/15 08:16:02;;;;;;;0;0;;;;;;;;;;;;;
2021/05/15 08:18:27;;;;;;;0.1;0.1;;;;;;;;;;;;;
2021/05/15 08:20:52;;;;;;;0.3;0.2;;;;;;;;;;;;;
2021/05/15 08:23:19;;;;;;;0;0;;;;;;;;;;;;;
2021/05/15 08:25:44;;;;;;;0.1;0.1;;;;;;;;;;;;;
2021/05/15 08:28:11;;;;;;;0.6;0.1;;;;;;;;;;;;;
2021/05/15 08:30:34;;;;;;;0;0;;;;;;;;;;;;;
2021/05/15 08:32:59;;;;;;;0.1;0.1;;;;;;;;;;;;;
2021/05/15 08:35:25;;;;;;;0.3;0.2;;;;;;;;;;;;;
2021/05/15 08:37:49;;;;;;;0.3;0.1;;;;;;;;;;;;;
2021/05/15 08:40:15;;;;;;;0;0;;;;;;;;;;;;;
2021/05/15 08:42:40;;;;;;;0.1;0.1;;;;;;;;;;;;;
2021/05/15 08:45:05;;;;;;;0.1;0;;;;;;;;;;;;;
2021/05/15 08:47:30;;;;;;;0;0;;;;;;;;;;;;;
2021/05/15 08:49:55;;;;;;;0.2;0.2;;;;;;;;;;;;;
2021/05/15 08:52:20;;;;;;;0.1;0.1;;;;;;;;;;;;;
2021/05/15 08:54:59;;;;;;;0.3;0.2;;;;;;;;;;;;;
2021/05/15 08:57:24;;;;;;;0.3;0.3;;;;;;;;;;;;;
2021/05/15 08:59:49;;;;;;;0.1;0.1;;;;;;;;;;;;;
2021/05/15 09:02:14;;;;;;;0.2;0.1;;;;;;;;;;;;;
2021/05/15 09:04:39;;;;;;;0.5;0.2;;;;;;;;;;;;;
2021/05/15 09:07:04;;;;;;;0;0;;;;;;;;;;;;;
2021/05/15 09:09:30;;;;;;;0.3;0.1;;;;;;;;;;;;;
2021/05/15 09:11:55;;;;;;;0;0;;;;;;;;;;;;;
2021/05/15 09:14:20;;;;;;;0;0;;;;;;;;;;;;;
2021/05/15 09:17:01;;;;;;;0;0;;;;;;;;;;;;;
2021/05/15 09:19:26;;;;;;;0;0;;;;;;;;;;;;;
2021/05/15 09:21:52;;;;;;;0;0;;;;;;;;;;;;;
2021/05/15 09:24:17;;;;;;;0;0;;;;;;;;;;;;;
2021/05/15 09:26:42;;;;;;;0;0;;;;;;;;;;;;;
2021/05/15 09:29:07;;;;;;;0;0;;;;;;;;;;;;;
2021/05/15 09:31:35;;;;;;;0;0;;;;;;;;;;;;;
2021/05/15 09:33:59;;;;;;;0;0;;;;;;;;;;;;;
2021/05/15 09:36:24;;;;;;;0;0;;;;;;;;;;;;;
2021/05/15 09:38:49;;;;;;;0.5;0.3;;;;;;;;;;;;;
2021/05/15 09:41:14;;;;;;;0;0;;;;;;;;;;;;;
2021/05/15 09:43:40;;;;;;;0.4;0.1;;;;;;;;;;;;;
2021/05/15 09:46:05;;;;;;;0.1;0.1;;;;;;;;;;;;;
2021/05/15 09:48:36;;;;;;;0;0;;;;;;;;;;;;;
2021/05/15 09:50:55;;;;;;;0;0;;;;;;;;;;;;;
2021/05/15 09:53:22;;;;;;;0.1;0.1;;;;;;;;;;;;;
2021/05/15 09:55:45;;;;;;;0.3;0;;;;;;;;;;;;;
2021/05/15 09:58:10;;;;;;;0;0;;;;;;;;;;;;;
2021/05/15 10:00:36;;;;;;;0;0;;;;;;;;;;;;;
2021/05/15 10:05:29;;;;;;;0.3;0.1;;;;;;;;;;;;;
2021/05/15 10:07:54;;;;;;;0.5;0.3;;;;;;;;;;;;;
2021/05/15 10:10:19;;;;;;;0;0;;;;;;;;;;;;;
2021/05/15 10:12:45;;;;;;;0;0;;;;;;;;;;;;;
2021/05/15 10:15:10;;;;;;;0.1;0.1;;;;;;;;;;;;;
2021/05/15 10:17:35;;;;;;;0;0;;;;;;;;;;;;;
2021/05/15 10:20:00;;;;;;;0;0;;;;;;;;;;;;;
2021/05/15 10:22:25;;;;;;;0;0;;;;;;;;;;;;;
2021/05/15 10:25:00;;;;;;;0.3;0.2;;;;;;;;;;;;;
2021/05/15 10:27:24;;;;;;;0;0;;;;;;;;;;;;;
2021/05/15 10:29:49;;;;;;;0;0;;;;;;;;;;;;;
2021/05/15 10:32:14;;;;;;;0;0;;;;;;;;;;;;;
2021/05/15 10:34:40;;;;;;;0.3;0.2;;;;;;;;;;;;;
2021/05/15 10:37:05;;;;;;;0.1;0;;;;;;;;;;;;;
2021/05/15 10:39:30;;;;;;;0.4;0.1;;;;;;;;;;;;;
2021/05/15 10:41:55;;;;;;;0;0;;;;;;;;;;;;;
2021/05/15 10:44:22;;;;;;;0;0;;;;;;;;;;;;;
2021/05/15 10:46:47;;;;;;;0.1;0;;;;;;;;;;;;;
2021/05/15 10:49:13;;;;;;;0.1;0;;;;;;;;;;;;;
2021/05/15 10:51:38;;;;;;;0.1;0;;;;;;;;;;;;;
2021/05/15 10:54:18;;;;;;;0;0;;;;;;;;;;;;;
2021/05/15 10:56:43;;;;;;;0.1;0;;;;;;;;;;;;;
2021/05/15 10:59:08;;;;;;;0.1;0.1;;;;;;;;;;;;;
2021/05/15 11:01:34;;;;;;;0;0;;;;;;;;;;;;;
2021/05/15 11:03:59;;;;;;;0;0;;;;;;;;;;;;;
2021/05/15 11:06:24;;;;;;;0;0;;;;;;;;;;;;;
2021/05/15 11:08:52;;;;;;;0.9;0.2;;;;;;;;;;;;;
2021/05/15 11:11:17;;;;;;;0;0;;;;;;;;;;;;;
2021/05/15 11:13:42;;;;;;;0;0;;;;;;;;;;;;;
2021/05/15 11:16:07;;;;;;;0.1;0.1;;;;;;;;;;;;;
2021/05/15 11:18:36;;;;;;;0;0;;;;;;;;;;;;;
2021/05/15 11:20:57;;;;;;;0;0;;;;;;;;;;;;;
2021/05/15 11:23:24;;;;;;;0.2;0.1;;;;;;;;;;;;;
2021/05/15 11:25:49;;;;;;;0.3;0.1;;;;;;;;;;;;;
2021/05/15 11:28:14;;;;;;;0;0;;;;;;;;;;;;;
2021/05/15 11:30:40;;;;;;;0;0;;;;;;;;;;;;;
2021/05/15 11:35:30;;;;;;;0;0;;;;;;;;;;;;;
2021/05/15 11:37:56;;;;;;;0.3;0.1;;;;;;;;;;;;;
2021/05/15 11:40:21;;;;;;;0.1;0.1;;;;;;;;;;;;;
2021/05/15 11:42:46;;;;;;;0;0;;;;;;;;;;;;;
2021/05/15 11:45:13;;;;;;;0.1;0.1;;;;;;;;;;;;;
2021/05/15 11:47:36;;;;;;;0.1;0;;;;;;;;;;;;;
2021/05/15 11:50:01;;;;;;;0;0;;;;;;;;;;;;;
2021/05/15 11:52:28;;;;;;;2.1;0.1;;;;;;;;;;;;;
2021/05/15 11:54:53;;;;;;;0.1;0.1;;;;;;;;;;;;;
2021/05/15 11:57:18;;;;;;;1.3;0.4;;;;;;;;;;;;;
2021/05/15 11:59:43;;;;;;;0;0;;;;;;;;;;;;;
2021/05/15 12:02:09;;;;;;;0.1;0.1;;;;;;;;;;;;;
2021/05/15 12:04:34;;;;;;;0;0;;;;;;;;;;;;;
2021/05/15 12:07:26;;;;;;;0.4;0.2;;;;;;;;;;;;;
2021/05/15 12:09:53;;;;;;;0;0;;;;;;;;;;;;;
2021/05/15 12:12:18;;;;;;;0;0;;;;;;;;;;;;;
2021/05/15 12:14:46;;;;;;;0.1;0;;;;;;;;;;;;;
2021/05/15 12:17:11;;;;;;;0.7;0.1;;;;;;;;;;;;;
2021/05/15 12:19:36;;;;;;;0.2;0.1;;;;;;;;;;;;;
2021/05/15 12:22:01;;;;;;;0.4;0.3;;;;;;;;;;;;;
2021/05/15 12:24:26;;;;;;;0.1;0.1;;;;;;;;;;;;;
2021/05/15 12:26:51;;;;;;;0.3;0.2;;;;;;;;;;;;;
2021/05/15 12:29:16;;;;;;;0.1;0.1;;;;;;;;;;;;;
2021/05/15 12:31:41;;;;;;;0;0;;;;;;;;;;;;;
2021/05/15 12:34:06;;;;;;;0;0;;;;;;;;;;;;;
2021/05/15 12:36:31;;;;;;;0.1;0;;;;;;;;;;;;;
2021/05/15 12:38:56;;;;;;;0.2;0;;;;;;;;;;;;;
2021/05/15 12:41:22;;;;;;;0.1;0.1;;;;;;;;;;;;;
2021/05/15 12:43:47;;;;;;;0;0;;;;;;;;;;;;;
2021/05/15 12:46:12;;;;;;;0.1;0.1;;;;;;;;;;;;;
2021/05/15 12:48:39;;;;;;;0.1;0.1;;;;;;;;;;;;;
2021/05/15 12:51:02;;;;;;;0.2;0.1;;;;;;;;;;;;;
2021/05/15 12:53:27;;;;;;;0;0;;;;;;;;;;;;;
2021/05/15 12:55:52;;;;;;;0;0;;;;;;;;;;;;;
2021/05/15 12:58:17;;;;;;;0;0;;;;;;;;;;;;;
2021/05/15 13:00:42;;;;;;;0.6;0.2;;;;;;;;;;;;;
2021/05/15 13:03:08;;;;;;;0.2;0.1;;;;;;;;;;;;;
2021/05/15 13:05:34;;;;;;;0;0;;;;;;;;;;;;;
2021/05/15 13:07:58;;;;;;;0.1;0.1;;;;;;;;;;;;;
2021/05/15 13:10:24;;;;;;;0.1;0.1;;;;;;;;;;;;;
2021/05/15 13:12:48;;;;;;;0.1;0.1;;;;;;;;;;;;;
2021/05/15 13:15:13;;;;;;;0.1;0.1;;;;;;;;;;;;;
2021/05/15 13:17:38;;;;;;;0;0;;;;;;;;;;;;;
2021/05/15 13:22:28;;;;;;;0.1;0.1;;;;;;;;;;;;;
2021/05/15 13:24:53;;;;;;;0;0;;;;;;;;;;;;;
2021/05/15 13:27:19;;;;;;;0;0;;;;;;;;;;;;;
2021/05/15 13:29:44;;;;;;;0;0;;;;;;;;;;;;;
2021/05/15 13:32:09;;;;;;;0.4;0.3;;;;;;;;;;;;;
2021/05/15 13:34:34;;;;;;;0.2;0.1;;;;;;;;;;;;;
2021/05/15 13:36:59;;;;;;;0.6;0.1;;;;;;;;;;;;;
2021/05/15 13:39:25;;;;;;;0.2;0.1;;;;;;;;;;;;;
2021/05/15 13:41:50;;;;;;;0;0;;;;;;;;;;;;;
2021/05/15 13:44:16;;;;;;;0.1;0.1;;;;;;;;;;;;;
2021/05/15 13:46:41;;;;;;;0.2;0.2;;;;;;;;;;;;;
2021/05/15 13:49:07;;;;;;;0;0;;;;;;;;;;;;;
2021/05/15 13:51:32;;;;;;;0.1;0.1;;;;;;;;;;;;;
2021/05/15 13:53:58;;;;;;;0.1;0.1;;;;;;;;;;;;;
2021/05/15 13:56:25;;;;;;;0.2;0.1;;;;;;;;;;;;;
2021/05/15 13:58:48;;;;;;;0;0;;;;;;;;;;;;;
2021/05/15 14:01:13;;;;;;;0;0;;;;;;;;;;;;;
2021/05/15 14:03:39;;;;;;;0;0;;;;;;;;;;;;;
2021/05/15 14:06:04;;;;;;;0.8;0.1;;;;;;;;;;;;;
2021/05/15 14:08:33;;;;;;;0;0;;;;;;;;;;;;;
2021/05/15 14:10:58;;;;;;;0.3;0.3;;;;;;;;;;;;;
2021/05/15 14:13:23;;;;;;;0.1;0.1;;;;;;;;;;;;;
2021/05/15 14:15:48;;;;;;;0.9;0.1;;;;;;;;;;;;;
2021/05/15 14:18:13;;;;;;;1.7;0.1;;;;;;;;;;;;;
2021/05/15 14:20:39;;;;;;;0.1;0.1;;;;;;;;;;;;;
2021/05/15 14:23:04;;;;;;;0;0;;;;;;;;;;;;;
2021/05/15 14:25:30;;;;;;;0;0;;;;;;;;;;;;;
2021/05/15 14:27:55;;;;;;;0;0;;;;;;;;;;;;;
2021/05/15 14:30:22;;;;;;;0.7;0.1;;;;;;;;;;;;;
2021/05/15 14:32:46;;;;;;;0.1;0;;;;;;;;;;;;;
2021/05/15 14:35:11;;;;;;;0.2;0;;;;;;;;;;;;;
2021/05/15 14:37:36;;;;;;;0.6;0.2;;;;;;;;;;;;;
2021/05/15 14:40:01;;;;;;;0.3;0.2;;;;;;;;;;;;;
2021/05/15 14:42:27;;;;;;;0.1;0;;;;;;;;;;;;;
2021/05/15 14:44:51;;;;;;;0.4;0.2;;;;;;;;;;;;;
2021/05/15 14:47:16;;;;;;;0.1;0;;;;;;;;;;;;;
2021/05/15 14:49:42;;;;;;;0;0;;;;;;;;;;;;;
2021/05/15 14:52:07;;;;;;;0.2;0.2;;;;;;;;;;;;;
2021/05/15 14:54:32;;;;;;;0.1;0.1;;;;;;;;;;;;;
2021/05/15 14:56:57;;;;;;;0;0;;;;;;;;;;;;;
2021/05/15 14:59:23;;;;;;;3.1;0.1;;;;;;;;;;;;;
2021/05/15 15:01:48;;;;;;;0.2;0.1;;;;;;;;;;;;;
2021/05/15 15:04:14;;;;;;;0.1;0.1;;;;;;;;;;;;;
2021/05/15 15:06:39;;;;;;;0.1;0.1;;;;;;;;;;;;;
2021/05/15 15:09:05;;;;;;;0.1;0.1;;;;;;;;;;;;;
2021/05/15 15:11:30;;;;;;;0.2;0.2;;;;;;;;;;;;;
2021/05/15 15:16:37;;;;;;;4.8;0.5;;;;;;;;;;;;;
2021/05/15 15:19:03;;;;;;;0;0;;;;;;;;;;;;;
2021/05/15 15:21:28;;;;;;;0.1;0;;;;;;;;;;;;;
2021/05/15 15:23:53;;;;;;;0.3;0.1;;;;;;;;;;;;;
2021/05/15 15:26:18;;;;;;;0.1;0;;;;;;;;;;;;;
2021/05/15 15:28:43;;;;;;;0.1;0.1;;;;;;;;;;;;;
2021/05/15 15:31:08;;;;;;;0.5;0.2;;;;;;;;;;;;;
2021/05/15 15:33:34;;;;;;;0.2;0.2;;;;;;;;;;;;;
2021/05/15 15:35:59;;;;;;;0.1;0.1;;;;;;;;;;;;;
2021/05/15 15:38:24;;;;;;;0.7;0.2;;;;;;;;;;;;;
2021/05/15 15:40:49;;;;;;;4.8;0.4;;;;;;;;;;;;;
2021/05/15 15:43:14;;;;;;;0.1;0.1;;;;;;;;;;;;;
2021/05/15 15:45:42;;;;;;;0.1;0.1;;;;;;;;;;;;;
2021/05/15 15:48:05;;;;;;;1.1;0.3;;;;;;;;;;;;;
2021/05/15 15:50:30;;;;;;;0.2;0.2;;;;;;;;;;;;;
2021/05/15 15:53:04;;;;;;;0;0;;;;;;;;;;;;;
2021/05/15 15:55:29;;;;;;;0.3;0.3;;;;;;;;;;;;;
2021/05/15 15:57:54;;;;;;;0.3;0.3;;;;;;;;;;;;;
2021/05/15 16:00:19;;;;;;;2.2;1.4;;;;;;;;;;;;;
2021/05/15 16:02:44;;;;;;;4;3.1;;;;;;;;;;;;;
2021/05/15 16:05:09;;;;;;;2.1;1.2;;;;;;;;;;;;;
2021/05/15 16:07:35;;;;;;;0.5;0.5;;;;;;;;;;;;;
2021/05/15 16:10:13;;;;;;;0.3;0.3;;;;;;;;;;;;;
2021/05/15 16:12:38;;;;;;;0.1;0.1;;;;;;;;;;;;;
2021/05/15 16:15:03;;;;;;;0.3;0.2;;;;;;;;;;;;;
2021/05/15 16:17:28;;;;;;;0.2;0.2;;;;;;;;;;;;;
2021/05/15 16:19:53;;;;;;;0.2;0.1;;;;;;;;;;;;;
2021/05/15 16:22:18;;;;;;;0;0;;;;;;;;;;;;;
2021/05/15 16:24:43;;;;;;;0.3;0.2;;;;;;;;;;;;;
2021/05/15 16:27:09;;;;;;;0.1;0;;;;;;;;;;;;;
2021/05/15 16:29:34;;;;;;;0;0;;;;;;;;;;;;;
2021/05/15 16:31:59;;;;;;;0.3;0.2;;;;;;;;;;;;;
2021/05/15 16:34:33;;;;;;;0.2;0.1;;;;;;;;;;;;;
2021/05/15 16:36:49;;;;;;;0.8;0.4;;;;;;;;;;;;;
2021/05/15 16:39:15;;;;;;;0.2;0.2;;;;;;;;;;;;;
2021/05/15 16:41:40;;;;;;;0.3;0.2;;;;;;;;;;;;;
2021/05/15 16:44:05;;;;;;;0.1;0.1;;;;;;;;;;;;;
2021/05/15 16:46:31;;;;;;;0.2;0.2;;;;;;;;;;;;;
2021/05/15 16:48:55;;;;;;;0.7;0.7;;;;;;;;;;;;;
2021/05/15 16:51:21;;;;;;;0.1;0.1;;;;;;;;;;;;;
2021/05/15 16:53:49;;;;;;;0.3;0.2;;;;;;;;;;;;;
2021/05/15 16:56:14;;;;;;;0.6;0.5;;;;;;;;;;;;;
2021/05/15 16:58:40;;;;;;;0.8;0.2;;;;;;;;;;;;;
2021/05/15 17:01:05;;;;;;;3.1;0.4;;;;;;;;;;;;;
2021/05/15 17:03:30;;;;;;;0.1;0.1;;;;;;;;;;;;;
2021/05/15 17:06:06;;;;;;;0.6;0.3;;;;;;;;;;;;;
2021/05/15 17:08:37;;;;;;;0.4;0.4;;;;;;;;;;;;;
2021/05/15 17:10:56;;;;;;;0.3;0.2;;;;;;;;;;;;;
2021/05/15 17:13:21;;;;;;;0.5;0.4;;;;;;;;;;;;;
2021/05/15 17:15:46;;;;;;;0.6;0.5;;;;;;;;;;;;;
2021/05/15 17:18:11;;;;;;;1.2;0.7;;;;;;;;;;;;;
2021/05/15 17:20:36;;;;;;;1.7;0.7;;;;;;;;;;;;;
2021/05/15 17:23:02;;;;;;;0.8;0.6;;;;;;;;;;;;;
2021/05/15 17:25:48;;;;;;;1.3;0.8;;;;;;;;;;;;;
2021/05/15 17:28:04;;;;;;;0.8;0.5;;;;;;;;;;;;;
2021/05/15 17:30:29;;;;;;;0.9;0.7;;;;;;;;;;;;;
2021/05/15 17:32:54;;;;;;;0.3;0.3;;;;;;;;;;;;;
2021/05/15 17:35:21;;;;;;;2.4;0.8;;;;;;;;;;;;;
2021/05/15 17:37:45;;;;;;;0.8;0.5;;;;;;;;;;;;;
2021/05/15 17:40:26;;;;;;;0.5;0.3;;;;;;;;;;;;;
2021/05/15 17:42:51;;;;;;;0.2;0.2;;;;;;;;;;;;;
2021/05/15 17:45:16;;;;;;;0.5;0.5;;;;;;;;;;;;;
2021/05/15 17:47:41;;;;;;;1.2;0.7;;;;;;;;;;;;;
2021/05/15 17:50:06;;;;;;;3.3;0.7;;;;;;;;;;;;;
2021/05/15 17:52:33;;;;;;;0.3;0.3;;;;;;;;;;;;;
2021/05/15 17:54:57;;;;;;;0.6;0.4;;;;;;;;;;;;;
2021/05/15 17:57:40;;;;;;;1.1;0.6;;;;;;;;;;;;;
2021/05/15 17:59:47;;;;;;;3.4;0.5;;;;;;;;;;;;;
2021/05/15 18:02:12;;;;;;;0.3;0.3;;;;;;;;;;;;;
2021/05/15 18:04:40;;;;;;;0.2;0.2;;;;;;;;;;;;;
2021/05/15 18:07:11;;;;;;;0.9;0.4;;;;;;;;;;;;;
2021/05/15 18:09:36;;;;;;;0.3;0.2;;;;;;;;;;;;;
2021/05/15 18:12:02;;;;;;;0.1;0.1;;;;;;;;;;;;;
2021/05/15 18:14:27;;;;;;;0.2;0.2;;;;;;;;;;;;;
2021/05/15 18:16:52;;;;;;;0;0;;;;;;;;;;;;;
2021/05/15 18:19:22;;;;;;;0.5;0.3;;;;;;;;;;;;;
2021/05/15 18:21:42;;;;;;;0.4;0.3;;;;;;;;;;;;;
2021/05/15 18:24:09;;;;;;;0.1;0.1;;;;;;;;;;;;;
2021/05/15 18:26:35;;;;;;;0.2;0.2;;;;;;;;;;;;;
2021/05/15 18:29:00;;;;;;;0.1;0.1;;;;;;;;;;;;;
2021/05/15 18:31:25;;;;;;;0.2;0.2;;;;;;;;;;;;;
2021/05/15 18:33:54;;;;;;;0.3;0.3;;;;;;;;;;;;;
2021/05/15 18:36:16;;;;;;;0.1;0.1;;;;;;;;;;;;;
2021/05/15 18:38:41;;;;;;;2.6;0.8;;;;;;;;;;;;;
2021/05/15 18:41:06;;;;;;;0.4;0.4;;;;;;;;;;;;;
2021/05/15 18:43:31;;;;;;;0.5;0.5;;;;;;;;;;;;;
2021/05/15 18:45:56;;;;;;;0.3;0.3;;;;;;;;;;;;;
2021/05/15 18:48:33;;;;;;;0.3;0.3;;;;;;;;;;;;;
2021/05/15 18:50:46;;;;;;;0.4;0.4;;;;;;;;;;;;;
2021/05/15 18:53:12;;;;;;;0.5;0.4;;;;;;;;;;;;;
2021/05/15 18:55:37;;;;;;;0.2;0.2;;;;;;;;;;;;;
2021/05/15 18:58:02;;;;;;;0.2;0.2;;;;;;;;;;;;;
2021/05/15 19:00:27;;;;;;;0.4;0.2;;;;;;;;;;;;;
2021/05/15 19:02:52;;;;;;;1;0.3;;;;;;;;;;;;;
2021/05/15 19:05:17;;;;;;;0.4;0.3;;;;;;;;;;;;;
2021/05/15 19:07:42;;;;;;;3.4;0.6;;;;;;;;;;;;;
2021/05/15 19:10:07;;;;;;;0.5;0.5;;;;;;;;;;;;;
2021/05/15 19:12:33;;;;;;;2.6;0.4;;;;;;;;;;;;;
2021/05/15 19:14:58;;;;;;;1.2;0.5;;;;;;;;;;;;;
2021/05/15 19:17:23;;;;;;;0.3;0.3;;;;;;;;;;;;;
2021/05/15 19:19:49;;;;;;;0.4;0.4;;;;;;;;;;;;;
2021/05/15 19:22:15;;;;;;;0.6;0.5;;;;;;;;;;;;;
2021/05/15 19:24:39;;;;;;;0.7;0.5;;;;;;;;;;;;;
2021/05/15 19:27:04;;;;;;;1.8;0.4;;;;;;;;;;;;;
2021/05/15 19:29:29;;;;;;;0.6;0.4;;;;;;;;;;;;;
2021/05/15 19:32:00;;;;;;;0.6;0.4;;;;;;;;;;;;;
2021/05/15 19:34:25;;;;;;;0.5;0.5;;;;;;;;;;;;;
2021/05/15 19:36:51;;;;;;;1;0.6;;;;;;;;;;;;;
2021/05/15 19:39:16;;;;;;;0.7;0.6;;;;;;;;;;;;;
2021/05/15 19:41:41;;;;;;;0.6;0.4;;;;;;;;;;;;;
2021/05/15 19:44:06;;;;;;;0.9;0.7;;;;;;;;;;;;;
2021/05/15 19:46:31;;;;;;;4.2;0.7;;;;;;;;;;;;;
2021/05/15 19:48:57;;;;;;;0.7;0.5;;;;;;;;;;;;;
2021/05/15 19:51:22;;;;;;;0.5;0.5;;;;;;;;;;;;;
2021/05/15 19:53:55;;;;;;;0.8;0.5;;;;;;;;;;;;;
2021/05/15 19:56:21;;;;;;;0.4;0.3;;;;;;;;;;;;;
2021/05/15 19:58:46;;;;;;;0.3;0.3;;;;;;;;;;;;;
2021/05/15 20:01:12;;;;;;;5;0.5;;;;;;;;;;;;;
2021/05/15 20:03:37;;;;;;;1;0.7;;;;;;;;;;;;;
2021/05/15 20:06:02;;;;;;;2;0.9;;;;;;;;;;;;;
2021/05/15 20:08:27;;;;;;;0.5;0.5;;;;;;;;;;;;;
2021/05/15 20:10:52;;;;;;;0.2;0.2;;;;;;;;;;;;;
2021/05/15 20:13:17;;;;;;;1.2;0.5;;;;;;;;;;;;;
2021/05/15 20:15:44;;;;;;;1.1;0.6;;;;;;;;;;;;;
2021/05/15 20:18:08;;;;;;;1.5;0.8;;;;;;;;;;;;;
2021/05/15 20:20:34;;;;;;;0.4;0.4;;;;;;;;;;;;;
2021/05/15 20:22:59;;;;;;;0.6;0.5;;;;;;;;;;;;;
2021/05/15 20:25:27;;;;;;;0.9;0.7;;;;;;;;;;;;;